Time;durP1;ratioP1;P1;durP2;ratioP2;P2;SDS_P1;SDS_P2;PMS_P1;PMS_P2;Temp;Humidity;BMP_temperature;BMP_pressure;BME280_temperature;BME280_humidity;BME280_pressure;Samples;Min_cycle;Max_cycle;Signal;HPM_P1;HPM_P2
2022/08/05 18:35:41;;;;;;;22.92;6.28;;;;;;;22.10;37.84;102607.66;5110737;27;20396;-86
2022/08/05 18:38:08;;;;;;;14.73;4.03;;;;;;;22.18;37.73;102609.53;5083345;28;20028;-84
2022/08/05 18:40:35;;;;;;;9.68;3.40;;;;;;;22.53;37.18;102620.22;5100136;28;20091;-84
2022/08/05 18:43:02;;;;;;;11.75;4.05;;;;;;;22.80;36.84;102625.03;5097823;28;20025;-84
2022/08/05 18:45:28;;;;;;;20.55;5.60;;;;;;;23.14;36.19;102620.09;5097232;28;20032;-84
2022/08/05 18:47:54;;;;;;;8.25;4.13;;;;;;;23.28;36.12;102622.50;5078804;28;20055;-83
2022/08/05 18:53:05;;;;;;;7.65;3.78;;;;;;;23.53;35.76;102621.22;5103928;28;20097;-85
2022/08/05 18:55:30;;;;;;;26.73;5.10;;;;;;;23.62;35.55;102621.09;5077445;28;20040;-87
2022/08/05 18:57:56;;;;;;;11.43;3.70;;;;;;;23.49;35.72;102629.47;5100048;28;20490;-87
2022/08/05 19:00:24;;;;;;;6.60;3.50;;;;;;;23.67;35.46;102626.41;5097790;28;20024;-84
2022/08/05 19:02:50;;;;;;;14.70;4.53;;;;;;;23.73;35.11;102625.81;5070907;28;20021;-87
2022/08/05 19:05:22;;;;;;;5.80;2.88;;;;;;;23.98;34.71;102631.22;5067427;28;20087;-88
2022/08/05 19:07:49;;;;;;;11.18;4.50;;;;;;;24.08;34.41;102645.44;5069401;28;20031;-85
2022/08/05 19:10:17;;;;;;;6.60;3.25;;;;;;;23.90;34.91;102651.75;5076069;28;20507;-85
2022/08/05 19:12:43;;;;;;;9.73;3.80;;;;;;;23.94;34.90;102645.06;5084026;28;20028;-84
2022/08/05 19:15:10;;;;;;;9.13;3.72;;;;;;;23.94;35.26;102655.44;5085506;28;20036;-89
2022/08/05 19:17:37;;;;;;;7.70;3.63;;;;;;;24.05;34.89;102651.75;5093911;28;20478;-85
2022/08/05 19:20:07;;;;;;;6.82;3.28;;;;;;;23.90;35.37;102658.13;5083968;28;20114;-89
2022/08/05 19:22:36;;;;;;;;;;;;;;;23.78;35.61;102653.44;5080996;28;20065;-93
2022/08/05 19:25:03;;;;;;;9.95;3.42;;;;;;;23.76;35.63;102660.53;5102263;28;19911;-83
2022/08/05 19:27:29;;;;;;;6.47;3.05;;;;;;;23.98;35.18;102661.94;5093179;28;20032;-90
2022/08/05 19:29:57;;;;;;;7.43;3.40;;;;;;;23.96;35.48;102661.47;5085728;28;20117;-89
2022/08/05 19:32:23;;;;;;;11.88;3.45;;;;;;;24.28;35.09;102665.09;5086516;28;20434;-87
2022/08/05 19:34:49;;;;;;;8.82;3.28;;;;;;;23.82;36.03;102664.69;5082210;28;20132;-86
2022/08/05 19:37:15;;;;;;;8.82;3.63;;;;;;;24.69;34.40;102662.91;5094915;28;20032;-84
2022/08/05 19:39:40;;;;;;;10.52;4.10;;;;;;;23.51;36.32;102671.78;5088266;28;20382;-80
2022/08/05 19:42:06;;;;;;;9.20;3.63;;;;;;;23.37;36.48;102674.19;5069307;28;20432;-79
2022/08/05 19:44:32;;;;;;;10.35;4.13;;;;;;;23.22;37.09;102674.91;5088059;28;20398;-76
2022/08/05 19:46:59;;;;;;;7.60;3.97;;;;;;;23.30;36.98;102679.53;5075853;28;20092;-78
2022/08/05 19:49:26;;;;;;;8.43;3.70;;;;;;;23.77;36.24;102678.91;5074282;28;20024;-78
2022/08/05 19:51:52;;;;;;;7.13;3.88;;;;;;;23.38;36.98;102678.59;5075395;28;20024;-78
2022/08/05 19:54:20;;;;;;;11.48;4.10;;;;;;;23.45;37.05;102684.38;5075123;28;20035;-76
2022/08/05 19:56:47;;;;;;;8.27;4.22;;;;;;;23.52;36.86;102694.94;5075137;28;20474;-76
2022/08/05 19:59:13;;;;;;;6.22;3.65;;;;;;;23.41;36.87;102693.78;5074768;28;20107;-76
2022/08/05 20:01:40;;;;;;;11.77;3.97;;;;;;;23.46;36.69;102701.91;5075046;28;20063;-76
2022/08/05 20:04:07;;;;;;;6.57;3.50;;;;;;;23.38;36.95;102705.66;5074766;28;20532;-93
2022/08/05 20:06:33;;;;;;;6.20;3.33;;;;;;;23.39;37.28;102710.06;5084085;28;20040;-77
2022/08/05 20:09:00;;;;;;;7.32;3.55;;;;;;;23.94;35.72;102708.47;5069642;28;20031;-83
2022/08/05 20:11:26;;;;;;;8.40;3.97;;;;;;;23.73;36.37;102708.72;5067399;28;20044;-81
2022/08/05 20:13:52;;;;;;;10.60;4.00;;;;;;;23.59;36.62;102716.66;5086987;28;20043;-80
2022/08/05 20:16:19;;;;;;;12.20;4.50;;;;;;;23.42;36.90;102723.31;5065924;28;20394;-78
2022/08/05 20:18:48;;;;;;;9.27;3.85;;;;;;;23.48;37.01;102727.47;5064727;28;20033;-80
2022/08/05 20:21:16;;;;;;;11.02;4.68;;;;;;;23.24;37.17;102728.34;5084320;28;20021;-80
2022/08/05 20:23:43;;;;;;;8.73;3.90;;;;;;;23.67;36.92;102729.66;5061539;28;20451;-80
2022/08/05 20:26:11;;;;;;;6.95;3.90;;;;;;;23.75;36.05;102739.88;5090073;28;20515;-80
2022/08/05 20:28:37;;;;;;;7.60;3.35;;;;;;;23.76;36.23;102731.13;5074717;28;20020;-80
2022/08/05 20:31:04;;;;;;;11.07;4.22;;;;;;;23.68;36.34;102732.09;5077669;28;20009;-77
2022/08/05 20:33:31;;;;;;;15.80;4.80;;;;;;;23.38;37.05;102736.34;5083497;28;20083;-79
2022/08/05 20:35:58;;;;;;;13.85;3.55;;;;;;;23.28;36.88;102742.44;5058392;28;20029;-86
2022/08/05 20:38:24;;;;;;;12.60;3.78;;;;;;;23.59;36.38;102750.13;5077548;28;20043;-83
2022/08/05 20:40:51;;;;;;;7.82;3.40;;;;;;;23.75;36.13;102746.25;5063689;28;20037;-80
2022/08/05 20:43:17;;;;;;;12.27;4.30;;;;;;;23.68;36.02;102754.41;5082995;28;20036;-86
2022/08/05 20:45:42;;;;;;;9.23;4.05;;;;;;;23.59;36.57;102756.53;5082429;28;20024;-82
2022/08/05 20:48:08;;;;;;;6.95;3.15;;;;;;;23.64;36.08;102759.06;5064131;28;20040;-86
2022/08/05 20:50:34;;;;;;;10.48;3.78;;;;;;;23.42;36.37;102756.78;5064021;28;20166;-81
2022/08/05 20:53:00;;;;;;;8.65;3.55;;;;;;;23.61;35.99;102754.22;5062243;28;20024;-80
2022/08/05 20:55:25;;;;;;;5.25;2.95;;;;;;;23.61;36.00;102758.97;5064998;28;20078;-86
2022/08/05 20:57:51;;;;;;;8.73;3.53;;;;;;;23.39;36.29;102768.66;5060407;28;20037;-84
2022/08/05 21:00:17;;;;;;;11.25;3.88;;;;;;;22.90;37.45;102774.28;5065002;28;20075;-88
2022/08/05 21:02:42;;;;;;;8.52;3.28;;;;;;;22.82;37.54;102770.44;5066209;28;20201;-86
2022/08/05 21:05:09;;;;;;;10.07;3.50;;;;;;;22.84;37.62;102770.88;5065218;28;20033;-83
2022/08/05 21:07:39;;;;;;;7.55;3.78;;;;;;;23.08;36.83;102772.06;5062337;28;20398;-88
2022/08/05 21:10:08;;;;;;;8.18;3.40;;;;;;;23.11;36.85;102776.94;5068918;28;20028;-87
2022/08/05 21:12:37;;;;;;;14.50;4.18;;;;;;;22.85;37.08;102778.13;5080577;28;20028;-88
2022/08/05 21:15:03;;;;;;;11.43;3.35;;;;;;;22.65;37.85;102774.22;5066826;28;20024;-87
2022/08/05 21:17:29;;;;;;;7.60;3.95;;;;;;;22.22;38.64;102788.66;5064762;28;20139;-92
2022/08/05 21:19:56;;;;;;;8.45;3.15;;;;;;;22.09;38.77;102796.16;5056438;28;20028;-76
2022/08/05 21:22:23;;;;;;;9.10;2.60;;;;;;;21.86;39.46;102789.31;5073756;28;20077;-75
2022/08/05 21:24:53;;;;;;;10.35;3.17;;;;;;;21.77;39.83;102788.56;5073657;28;20024;-76
2022/08/05 21:27:23;;;;;;;7.03;3.13;;;;;;;22.17;38.92;102785.28;5055551;28;20025;-75
2022/08/05 21:29:50;;;;;;;7.30;3.00;;;;;;;22.38;38.29;102789.63;5073115;28;20040;-75
2022/08/05 21:32:16;;;;;;;4.95;2.70;;;;;;;22.41;38.24;102788.94;5055575;28;20119;-74
2022/08/05 21:34:42;;;;;;;11.95;3.63;;;;;;;22.09;38.72;102787.00;5083049;28;20043;-81
2022/08/05 21:37:09;;;;;;;10.23;3.60;;;;;;;22.08;38.70;102788.97;5093437;28;20016;-74
2022/08/05 21:39:36;;;;;;;8.40;3.28;;;;;;;22.18;38.60;102787.72;5081988;28;20539;-88
2022/08/05 21:42:03;;;;;;;12.57;4.30;;;;;;;22.41;37.79;102790.91;5073720;28;20056;-83
2022/08/05 21:44:31;;;;;;;11.50;3.63;;;;;;;21.70;39.32;102788.28;5073729;28;20036;-74
2022/08/05 21:46:59;;;;;;;9.80;3.92;;;;;;;21.52;39.57;102793.16;5073300;28;20470;-74
2022/08/05 21:49:26;;;;;;;7.43;3.28;;;;;;;21.54;39.65;102794.47;5076866;28;20027;-89
2022/08/05 21:51:54;;;;;;;13.05;4.10;;;;;;;21.41;39.98;102798.31;5081128;28;20020;-75
2022/08/05 21:54:21;;;;;;;8.75;3.10;;;;;;;21.48;40.17;102801.38;5073100;28;20242;-89
2022/08/05 21:56:49;;;;;;;6.05;3.42;;;;;;;21.88;38.87;102796.13;5083042;28;20093;-76
2022/08/05 21:59:20;;;;;;;7.68;2.83;;;;;;;21.69;39.26;102797.78;5061874;28;20048;-75
2022/08/05 22:01:46;;;;;;;9.95;3.78;;;;;;;21.42;40.22;102801.91;5081726;28;20052;-74
2022/08/05 22:04:12;;;;;;;10.50;3.50;;;;;;;21.49;39.98;102807.75;5077042;28;20024;-80
2022/08/05 22:06:41;;;;;;;7.72;3.63;;;;;;;21.15;40.54;102805.94;5083217;28;20363;-89
2022/08/05 22:09:07;;;;;;;5.23;2.70;;;;;;;21.02;40.90;102808.66;5091875;28;20034;-84
2022/08/05 22:11:33;;;;;;;12.07;3.65;;;;;;;20.81;41.30;102807.75;5093427;28;20663;-74
2022/08/05 22:14:01;;;;;;;6.80;2.97;;;;;;;20.77;41.33;102810.38;5086050;28;20087;-87
2022/08/05 22:16:28;;;;;;;9.02;3.40;;;;;;;20.47;42.06;102815.03;5086859;28;20530;-80
2022/08/05 22:18:55;;;;;;;8.98;3.70;;;;;;;20.61;41.65;102806.50;5093648;28;20077;-89
2022/08/05 22:21:22;;;;;;;5.20;2.75;;;;;;;20.43;42.23;102805.72;5094468;28;20035;-90
2022/08/05 22:29:18;;;;;;;11.18;4.20;;;;;;;20.80;41.13;102800.56;5093467;28;20515;-89
2022/08/05 22:31:44;;;;;;;7.45;3.72;;;;;;;21.10;40.49;102795.84;5093677;28;20024;-90
2022/08/05 22:34:12;;;;;;;11.23;3.55;;;;;;;21.13;40.29;102797.13;5093319;28;20131;-89
2022/08/05 22:36:38;;;;;;;11.77;3.80;;;;;;;21.30;39.97;102802.63;5094488;28;20027;-89
2022/08/05 22:39:06;;;;;;;8.50;3.45;;;;;;;21.06;40.26;102792.91;5087936;28;20039;-89
2022/08/05 22:41:44;;;;;;;8.48;4.68;;;;;;;21.16;40.25;102802.84;5074297;28;20134;-89
2022/08/05 22:44:12;;;;;;;15.60;4.68;;;;;;;21.14;40.27;102801.53;5073954;28;20025;-89
2022/08/05 22:46:38;;;;;;;8.63;3.22;;;;;;;21.04;40.39;102806.34;5074150;28;20052;-88
2022/08/05 22:49:04;;;;;;;9.15;3.78;;;;;;;20.84;40.73;102809.03;5073365;28;20024;-89
2022/08/05 22:51:31;;;;;;;8.52;3.70;;;;;;;20.35;42.01;102817.66;5073707;28;20028;-90
2022/08/05 22:54:05;;;;;;;10.23;3.97;;;;;;;20.38;42.09;102816.19;5073781;28;20062;-90
2022/08/05 22:56:32;;;;;;;8.43;3.28;;;;;;;20.40;41.72;102825.84;5074583;28;20024;-89
2022/08/05 22:58:59;;;;;;;5.35;3.45;;;;;;;20.45;41.68;102827.63;5073175;28;20095;-88
2022/08/05 23:01:25;;;;;;;8.25;3.42;;;;;;;20.08;42.45;102829.94;5072620;28;20039;-81
2022/08/05 23:03:51;;;;;;;10.02;4.43;;;;;;;19.86;42.89;102835.63;5072081;28;20032;-82
2022/08/05 23:06:17;;;;;;;7.15;3.75;;;;;;;19.82;43.03;102837.44;5072794;28;20017;-76
2022/08/05 23:08:43;;;;;;;5.70;3.20;;;;;;;20.00;42.49;102841.84;5072596;28;20021;-75
2022/08/05 23:11:09;;;;;;;8.80;3.33;;;;;;;20.21;42.12;102842.00;5072642;28;20090;-76
2022/08/05 23:13:35;;;;;;;6.82;3.08;;;;;;;20.33;41.83;102841.31;5072313;28;20504;-77
2022/08/05 23:16:02;;;;;;;8.63;3.80;;;;;;;20.22;41.98;102847.22;5072359;28;20032;-88
2022/08/05 23:18:27;;;;;;;9.15;3.85;;;;;;;20.12;42.42;102839.25;5071776;28;20028;-75
2022/08/05 23:20:53;;;;;;;5.97;3.10;;;;;;;20.12;42.37;102846.75;5073489;28;20095;-75
2022/08/05 23:23:19;;;;;;;8.05;3.53;;;;;;;20.00;42.50;102847.41;5076119;28;20028;-76
2022/08/05 23:25:44;;;;;;;9.35;3.28;;;;;;;20.02;42.56;102847.88;5076131;28;20378;-88
2022/08/05 23:28:10;;;;;;;11.20;3.53;;;;;;;19.81;43.07;102856.06;5076194;28;20429;-88
2022/08/05 23:30:36;;;;;;;9.10;3.97;;;;;;;19.60;43.63;102855.84;5075978;28;20024;-88
2022/08/05 23:33:02;;;;;;;8.20;3.60;;;;;;;19.50;43.83;102858.09;5075401;28;20047;-77
2022/08/05 23:35:28;;;;;;;7.57;3.25;;;;;;;19.55;43.77;102857.91;5075822;28;20060;-88
2022/08/05 23:37:53;;;;;;;7.97;3.65;;;;;;;19.75;43.32;102868.44;5075850;28;20111;-76
2022/08/05 23:40:19;;;;;;;11.05;3.53;;;;;;;19.64;43.50;102867.09;5075645;28;20029;-76
2022/08/05 23:42:44;;;;;;;6.00;2.83;;;;;;;19.75;43.22;102876.75;5075755;28;20021;-76
2022/08/05 23:45:10;;;;;;;6.72;2.78;;;;;;;19.68;43.34;102877.25;5075537;28;20036;-76
2022/08/05 23:47:36;;;;;;;8.48;2.90;;;;;;;19.73;43.24;102878.25;5075756;28;20051;-88
2022/08/05 23:50:02;;;;;;;6.18;2.42;;;;;;;19.75;43.13;102871.22;5075033;28;20174;-76
2022/08/05 23:52:33;;;;;;;6.97;3.10;;;;;;;20.03;42.30;102874.50;5075631;28;20029;-89
2022/08/05 23:55:06;;;;;;;7.93;3.22;;;;;;;20.07;42.07;102880.22;5075822;28;20060;-87
2022/08/05 23:57:32;;;;;;;7.10;2.75;;;;;;;19.75;42.78;102889.81;5075413;28;20444;-76
2022/08/05 23:59:58;;;;;;;9.30;3.47;;;;;;;19.59;43.12;102883.91;5075528;28;20032;-88
